createdAt,value
2022-09-12T00:02:22.737Z,54.90
2022-09-12T00:07:28.277Z,54.77
2022-09-12T00:12:33.444Z,55.03
2022-09-12T00:17:40.059Z,54.97
2022-09-12T00:22:45.641Z,55.17
2022-09-12T00:27:50.491Z,55.20
2022-09-12T00:32:56.987Z,54.97
2022-09-12T00:38:03.156Z,54.50
2022-09-12T00:43:09.975Z,55.03
2022-09-12T00:48:18.602Z,54.30
2022-09-12T00:53:23.963Z,53.80
2022-09-12T00:58:32.088Z,54.57
2022-09-12T01:03:37.075Z,54.13
2022-09-12T01:08:45.191Z,53.70
2022-09-12T01:13:51.599Z,53.67
2022-09-12T01:19:18.922Z,54.03
2022-09-12T01:24:45.486Z,53.87
2022-09-12T01:30:16.952Z,54.17
2022-09-12T01:35:46.677Z,53.65
2022-09-12T01:40:57.729Z,53.00
2022-09-12T01:46:14.974Z,53.63
2022-09-12T01:51:38.879Z,53.90
2022-09-12T01:56:46.829Z,52.97
2022-09-12T02:01:55.978Z,52.60
2022-09-12T02:07:16.766Z,53.63
2022-09-12T02:12:25.126Z,52.97
2022-09-12T02:17:33.275Z,53.10
2022-09-12T02:22:39.827Z,53.40
2022-09-12T02:27:51.549Z,53.10
2022-09-12T02:33:05.302Z,53.28
2022-09-12T02:38:38.748Z,53.33
2022-09-12T02:43:44.205Z,53.93
2022-09-12T02:48:49.616Z,53.73
2022-09-12T02:53:55.068Z,53.93
2022-09-12T02:59:06.836Z,54.30
2022-09-12T03:04:30.937Z,54.73
2022-09-12T03:09:42.429Z,54.93
2022-09-12T03:14:58.244Z,54.87
2022-09-12T03:20:12.535Z,55.60
2022-09-12T03:25:35.426Z,55.73
2022-09-12T03:30:45.621Z,55.60
2022-09-12T03:35:52.005Z,56.07
2022-09-12T03:46:02.774Z,55.40
2022-09-12T03:51:11.073Z,56.73
2022-09-12T03:56:16.848Z,56.93
2022-09-12T04:01:22.469Z,56.98
2022-09-12T04:06:27.909Z,56.50
2022-09-12T04:11:33.812Z,58.27
2022-09-12T04:16:39.088Z,59.10
2022-09-12T04:21:44.326Z,58.43
2022-09-12T04:26:49.408Z,58.67
2022-09-12T04:31:55.006Z,58.57
2022-09-12T04:37:00.215Z,57.40
2022-09-12T04:42:05.820Z,57.77
2022-09-12T04:47:11.185Z,58.97
2022-09-12T04:52:16.108Z,59.43
2022-09-12T04:57:21.440Z,60.10
2022-09-12T05:02:28.024Z,60.53
2022-09-12T05:07:34.437Z,64.25
2022-09-12T05:12:39.591Z,59.30
2022-09-12T05:17:47.231Z,59.80
2022-09-12T05:22:52.581Z,63.00
2022-09-12T05:27:57.397Z,60.60
2022-09-12T05:33:02.563Z,59.07
2022-09-12T05:38:08.664Z,57.97
2022-09-12T05:43:15.911Z,58.75
2022-09-12T05:48:23.066Z,56.28
2022-09-12T05:53:30.066Z,56.30
2022-09-12T05:58:40.223Z,56.37
2022-09-12T06:03:49.064Z,55.30
2022-09-12T06:08:56.856Z,54.80
2022-09-12T06:14:02.869Z,54.27
2022-09-12T06:19:10.762Z,54.73
2022-09-12T06:24:17.430Z,55.44
2022-09-12T06:29:23.125Z,56.20
2022-09-12T06:34:30.808Z,56.02
2022-09-12T06:39:38.457Z,56.37
2022-09-12T06:44:44.988Z,56.08
2022-09-12T06:49:51.351Z,54.67
2022-09-12T07:00:01.440Z,54.65
2022-09-12T07:05:08.283Z,55.80
2022-09-12T07:10:14.123Z,54.10
2022-09-12T07:15:19.742Z,54.50
2022-09-12T07:20:24.638Z,54.23
2022-09-12T07:25:30.720Z,54.27
2022-09-12T07:30:38.648Z,53.43
2022-09-12T07:35:43.556Z,54.23
2022-09-12T07:40:49.110Z,53.93
2022-09-12T07:46:00.288Z,53.97
2022-09-12T07:51:08.338Z,54.83
2022-09-12T07:56:14.336Z,54.80
2022-09-12T08:01:23.160Z,54.53
2022-09-12T08:06:33.878Z,55.63
2022-09-12T08:11:40.531Z,54.43
2022-09-12T08:16:46.311Z,54.17
2022-09-12T08:21:51.922Z,54.43
2022-09-12T08:26:56.771Z,54.63
2022-09-12T08:32:01.964Z,55.03
2022-09-12T08:37:08.751Z,54.40
2022-09-12T08:42:21.474Z,54.03
2022-09-12T08:47:40.837Z,54.90
2022-09-12T08:52:58.761Z,54.63
2022-09-12T08:58:07.186Z,55.23
2022-09-12T09:03:21.515Z,55.37
2022-09-12T09:08:44.283Z,54.83
2022-09-12T09:14:21.988Z,56.23
2022-09-12T09:19:35.633Z,54.67
2022-09-12T09:24:47.026Z,55.17
2022-09-12T09:29:55.986Z,55.20
2022-09-12T09:35:04.984Z,54.98
2022-09-12T09:40:26.186Z,54.73
2022-09-12T09:45:31.785Z,55.53
2022-09-12T09:50:40.588Z,54.97
2022-09-12T09:55:46.771Z,55.07
2022-09-12T10:00:56.729Z,55.12
2022-09-12T10:06:22.574Z,55.13
2022-09-12T10:11:29.362Z,55.50
2022-09-12T10:16:37.844Z,55.23
2022-09-12T10:21:57.103Z,55.23
2022-09-12T10:27:15.433Z,55.67
2022-09-12T10:32:27.365Z,54.77
2022-09-12T10:37:36.674Z,54.70
2022-09-12T10:42:47.598Z,54.20
2022-09-12T10:47:54.861Z,54.00
2022-09-12T10:53:23.963Z,54.20
2022-09-12T10:59:05.739Z,53.80
2022-09-12T11:04:24.054Z,54.70
2022-09-12T11:09:56.534Z,54.38
2022-09-12T11:15:38.007Z,55.08
2022-09-12T11:20:49.771Z,54.23
2022-09-12T11:26:01.257Z,54.17
2022-09-12T11:31:39.871Z,53.63
2022-09-12T11:37:10.958Z,54.10
2022-09-12T11:42:22.508Z,53.93
2022-09-12T11:47:30.348Z,53.20
2022-09-12T11:52:40.368Z,52.93
2022-09-12T11:57:58.431Z,53.60
2022-09-12T12:03:09.688Z,53.92
2022-09-12T12:08:14.944Z,53.83
2022-09-12T12:13:39.331Z,53.33
2022-09-12T12:18:45.740Z,52.90
2022-09-12T12:24:12.201Z,53.30
2022-09-12T12:29:23.762Z,53.23
2022-09-12T12:34:37.633Z,53.20
2022-09-12T12:39:48.205Z,52.80
2022-09-12T12:44:53.898Z,53.43
2022-09-12T12:50:05.968Z,53.23
2022-09-12T12:55:17.796Z,53.97
2022-09-12T13:00:30.334Z,53.20
2022-09-12T13:05:48.732Z,53.65
2022-09-12T13:10:58.009Z,53.93
2022-09-12T13:16:04.067Z,53.60
2022-09-12T13:21:13.029Z,53.63
2022-09-12T13:26:26.211Z,53.60
2022-09-12T13:31:31.700Z,54.58
2022-09-12T13:37:07.107Z,53.77
2022-09-12T13:42:30.530Z,54.97
2022-09-12T13:47:45.326Z,54.93
2022-09-12T13:52:57.656Z,54.75
2022-09-12T13:58:20.031Z,54.30
2022-09-12T14:03:49.385Z,66.63
2022-09-12T14:08:57.687Z,54.63
2022-09-12T14:14:06.460Z,55.00
2022-09-12T14:19:12.958Z,55.53
2022-09-12T14:29:25.316Z,54.20
2022-09-12T14:34:31.545Z,54.70
2022-09-12T14:45:00.390Z,54.90
2022-09-12T14:50:11.222Z,54.97
2022-09-12T14:55:21.397Z,54.30
2022-09-12T15:00:27.184Z,55.03
2022-09-12T15:10:38.815Z,54.77
2022-09-12T15:15:49.794Z,55.00
2022-09-12T15:21:02.392Z,54.70
2022-09-12T15:26:08.606Z,54.83
2022-09-12T15:31:31.698Z,54.67
2022-09-12T15:36:37.326Z,55.10
2022-09-12T15:41:42.562Z,55.03
2022-09-12T15:46:48.284Z,54.13
2022-09-12T15:51:53.856Z,55.23
2022-09-12T15:56:59.375Z,54.83
2022-09-12T16:02:05.046Z,54.27
2022-09-12T16:07:11.579Z,54.75
2022-09-12T16:12:16.965Z,54.80
2022-09-12T16:17:22.540Z,54.80
2022-09-12T16:22:28.045Z,55.52
2022-09-12T16:27:33.363Z,55.73
2022-09-12T16:32:38.344Z,54.90
2022-09-12T16:37:43.738Z,54.53
2022-09-12T16:42:49.346Z,55.27
2022-09-12T16:47:54.635Z,54.07
2022-09-12T16:53:00.342Z,54.43
2022-09-12T16:58:05.174Z,54.07
2022-09-12T17:03:12.026Z,54.80
2022-09-12T17:08:17.499Z,55.47
2022-09-12T17:18:28.784Z,56.50
2022-09-12T17:23:35.345Z,60.20
2022-09-12T17:28:41.349Z,58.42
2022-09-12T17:33:48.238Z,61.90
2022-09-12T17:38:54.670Z,57.00
2022-09-12T17:44:02.596Z,55.80
2022-09-12T17:49:10.902Z,57.23
2022-09-12T17:54:19.533Z,56.97
2022-09-12T17:59:25.571Z,56.37
2022-09-12T18:04:31.796Z,55.97
2022-09-12T18:09:37.120Z,54.83
2022-09-12T18:14:42.928Z,55.03
2022-09-12T18:19:53.386Z,56.15
2022-09-12T18:24:56.563Z,55.13
2022-09-12T18:30:20.626Z,56.18
2022-09-12T18:35:09.783Z,56.20
2022-09-12T18:40:15.123Z,55.70
2022-09-12T18:45:20.329Z,55.27
2022-09-12T18:50:27.170Z,54.06
2022-09-12T18:55:33.159Z,53.67
2022-09-12T19:00:40.400Z,55.43
2022-09-12T19:05:45.972Z,54.90
2022-09-12T19:10:57.307Z,55.58
2022-09-12T19:16:04.761Z,55.37
2022-09-12T19:21:13.427Z,55.73
2022-09-12T19:26:21.248Z,54.50
2022-09-12T19:31:27.375Z,54.93
2022-09-12T19:36:48.109Z,55.23
2022-09-12T19:41:39.568Z,54.90
2022-09-12T19:46:45.825Z,54.67
2022-09-12T19:51:50.703Z,58.07
2022-09-12T19:56:56.428Z,55.60
2022-09-12T20:02:01.587Z,52.87
2022-09-12T20:07:06.671Z,51.90
2022-09-12T20:12:14.478Z,51.10
2022-09-12T20:17:19.867Z,51.30
2022-09-12T20:22:25.866Z,53.05
2022-09-12T20:27:31.245Z,53.00
2022-09-12T20:32:36.932Z,52.40
2022-09-12T20:37:42.098Z,51.87
2022-09-12T20:42:47.313Z,50.87
2022-09-12T20:47:52.239Z,50.90
2022-09-12T20:52:58.171Z,51.23
2022-09-12T20:58:03.891Z,50.40
2022-09-12T21:03:08.790Z,51.60
2022-09-12T21:08:14.942Z,52.43
2022-09-12T21:13:19.802Z,51.40
2022-09-12T21:18:25.069Z,51.88
2022-09-12T21:23:31.054Z,51.68
2022-09-12T21:28:36.629Z,52.38
2022-09-12T21:33:43.040Z,52.03
2022-09-12T21:38:48.403Z,51.73
2022-09-12T21:43:53.198Z,50.73
2022-09-12T21:48:59.925Z,50.48
2022-09-12T21:54:05.536Z,50.63
2022-09-12T21:59:10.899Z,51.90
2022-09-12T22:04:16.780Z,51.37
2022-09-12T22:14:27.351Z,50.55
2022-09-12T22:19:32.980Z,49.97
2022-09-12T22:24:38.383Z,49.73
2022-09-12T22:29:44.879Z,51.07
2022-09-12T22:39:54.421Z,49.45
2022-09-12T22:44:59.381Z,50.77
2022-09-12T22:50:05.514Z,50.47
2022-09-12T22:55:12.289Z,49.60
2022-09-12T23:00:19.039Z,50.37
2022-09-12T23:05:24.137Z,50.10
2022-09-12T23:10:29.585Z,49.90
2022-09-12T23:15:34.997Z,49.17
2022-09-12T23:20:39.871Z,49.30
2022-09-12T23:25:46.052Z,49.63
2022-09-12T23:30:54.082Z,49.97
2022-09-12T23:36:02.166Z,49.63
2022-09-12T23:41:07.824Z,49.50
2022-09-12T23:46:14.337Z,48.97
2022-09-12T23:51:20.105Z,49.88
2022-09-12T23:56:26.533Z,49.93
